createdAt,value
2017-05-02T00:00:30.718Z,0
2017-05-02T00:01:43.263Z,0
2017-05-02T00:02:55.811Z,0
2017-05-02T00:04:08.389Z,0
2017-05-02T00:05:20.655Z,0
2017-05-02T00:06:33.179Z,0
2017-05-02T00:07:45.464Z,0
2017-05-02T00:08:58.018Z,0
2017-05-02T00:10:10.240Z,0
2017-05-02T00:11:22.738Z,0
2017-05-02T00:12:35.252Z,0
2017-05-02T00:13:47.793Z,0
2017-05-02T00:15:00.048Z,0
2017-05-02T00:16:12.593Z,0
2017-05-02T00:17:24.816Z,0
2017-05-02T00:18:37.056Z,0
2017-05-02T00:19:49.312Z,0
2017-05-02T00:21:01.854Z,0
2017-05-02T00:22:14.394Z,0
2017-05-02T00:23:26.923Z,0
2017-05-02T00:24:39.440Z,0
2017-05-02T00:25:51.962Z,0
2017-05-02T00:27:03.907Z,0
2017-05-02T00:28:15.875Z,0
2017-05-02T00:29:28.425Z,0
2017-05-02T00:30:40.970Z,0
2017-05-02T00:31:53.519Z,0
2017-05-02T00:33:05.761Z,0
2017-05-02T00:34:18.308Z,0
2017-05-02T00:35:30.832Z,0
2017-05-02T00:36:43.354Z,0
2017-05-02T00:37:55.871Z,0
2017-05-02T00:39:08.407Z,0
2017-05-02T00:40:20.639Z,0
2017-05-02T00:41:33.162Z,0
2017-05-02T00:42:45.421Z,0
2017-05-02T00:43:58.253Z,0
2017-05-02T00:45:10.773Z,0
2017-05-02T00:46:22.697Z,0
2017-05-02T00:47:35.238Z,0
2017-05-02T00:48:47.759Z,0
2017-05-02T00:50:00.282Z,0
2017-05-02T00:51:12.518Z,0
2017-05-02T00:52:25.026Z,0
2017-05-02T00:53:37.571Z,0
2017-05-02T00:54:50.116Z,0
2017-05-02T00:56:02.640Z,0
2017-05-02T00:57:14.583Z,0
2017-05-02T00:58:27.128Z,0
2017-05-02T00:59:39.366Z,0
2017-05-02T01:00:51.014Z,0
2017-05-02T01:02:03.568Z,0
2017-05-02T01:03:16.088Z,0
2017-05-02T01:04:28.625Z,0
2017-05-02T01:05:41.130Z,0
2017-05-02T01:06:53.665Z,0
2017-05-02T01:08:06.188Z,0
2017-05-02T01:09:18.141Z,0
2017-05-02T01:10:30.685Z,0
2017-05-02T01:11:43.206Z,0
2017-05-02T01:12:55.732Z,0
2017-05-02T01:14:08.290Z,0
2017-05-02T01:15:20.524Z,0
2017-05-02T01:16:33.068Z,0
2017-05-02T01:17:45.613Z,0
2017-05-02T01:18:58.161Z,0
2017-05-02T01:20:10.107Z,0
2017-05-02T01:21:22.651Z,0
2017-05-02T01:22:35.173Z,0
2017-05-02T01:23:47.690Z,0
2017-05-02T01:25:00.216Z,0
2017-05-02T01:26:12.462Z,0
2017-05-02T01:27:24.658Z,0
2017-05-02T01:28:37.194Z,0
2017-05-02T01:29:49.712Z,0
2017-05-02T01:31:02.246Z,0
2017-05-02T01:32:14.763Z,0
2017-05-02T01:33:27.282Z,0
2017-05-02T01:34:39.809Z,0
2017-05-02T01:35:52.366Z,0
2017-05-02T01:37:04.869Z,0
2017-05-02T01:38:17.361Z,0
2017-05-02T01:39:29.908Z,0
2017-05-02T01:40:42.454Z,0
2017-05-02T01:41:54.674Z,0
2017-05-02T01:43:07.520Z,0
2017-05-02T01:44:20.051Z,0
2017-05-02T01:45:32.316Z,0
2017-05-02T01:46:44.538Z,0
2017-05-02T01:47:57.062Z,0
2017-05-02T01:49:09.620Z,0
2017-05-02T01:50:21.846Z,0
2017-05-02T01:51:34.374Z,0
2017-05-02T01:52:46.935Z,0
2017-05-02T01:53:59.462Z,0
2017-05-02T01:55:11.975Z,0
2017-05-02T01:56:24.507Z,0
2017-05-02T01:57:37.029Z,0
2017-05-02T01:58:49.574Z,0
2017-05-02T02:00:01.785Z,0
2017-05-02T02:01:14.018Z,0
2017-05-02T02:02:26.559Z,0
2017-05-02T02:03:39.109Z,0
2017-05-02T02:04:51.602Z,0
2017-05-02T02:06:04.105Z,0
2017-05-02T02:07:16.639Z,0
2017-05-02T02:08:29.190Z,0
2017-05-02T02:09:41.713Z,0
2017-05-02T02:10:54.484Z,0
2017-05-02T02:12:06.730Z,0
2017-05-02T02:13:19.278Z,0
2017-05-02T02:14:31.846Z,0
2017-05-02T02:15:43.738Z,0
2017-05-02T02:16:56.260Z,0
2017-05-02T02:18:08.504Z,0
2017-05-02T02:19:21.007Z,0
2017-05-02T02:20:33.529Z,0
2017-05-02T02:21:45.711Z,0
2017-05-02T02:22:58.232Z,0
2017-05-02T02:24:10.187Z,0
2017-05-02T02:25:22.733Z,0
2017-05-02T02:26:35.001Z,0
2017-05-02T02:27:47.239Z,0
2017-05-02T02:28:59.472Z,0
2017-05-02T02:30:11.995Z,0
2017-05-02T02:31:24.513Z,0
2017-05-02T02:32:37.050Z,0
2017-05-02T02:33:48.996Z,0
2017-05-02T02:35:01.524Z,0
2017-05-02T02:36:13.747Z,0
2017-05-02T02:37:26.292Z,0
2017-05-02T02:38:38.833Z,0
2017-05-02T02:39:50.459Z,0
2017-05-02T02:41:03.027Z,0
2017-05-02T02:42:14.952Z,0
2017-05-02T02:43:27.477Z,0
2017-05-02T02:44:40.008Z,0
2017-05-02T02:45:52.537Z,0
2017-05-02T02:47:05.061Z,0
2017-05-02T02:48:17.597Z,0
2017-05-02T02:49:30.127Z,0
2017-05-02T02:50:42.673Z,0
2017-05-02T02:51:54.899Z,0
2017-05-02T02:53:07.430Z,0
2017-05-02T02:54:19.963Z,0
2017-05-02T02:55:32.522Z,0
2017-05-02T02:56:44.766Z,0
2017-05-02T02:57:56.999Z,0
2017-05-02T02:59:09.548Z,0
2017-05-02T03:00:22.114Z,0
2017-05-02T03:01:34.616Z,0
2017-05-02T03:02:47.148Z,0
2017-05-02T03:03:59.705Z,0
2017-05-02T03:05:12.224Z,0
2017-05-02T03:06:24.746Z,0
2017-05-02T03:07:37.009Z,0
2017-05-02T03:08:49.256Z,0
2017-05-02T03:10:01.784Z,0
2017-05-02T03:11:14.003Z,0
2017-05-02T03:12:25.914Z,0
2017-05-02T03:13:38.461Z,0
2017-05-02T03:14:50.693Z,0
2017-05-02T03:16:03.262Z,0
2017-05-02T03:17:15.784Z,0
2017-05-02T03:18:28.348Z,0
2017-05-02T03:19:40.901Z,0
2017-05-02T03:20:53.739Z,0
2017-05-02T03:22:06.243Z,5
2017-05-02T03:23:18.778Z,5
2017-05-02T03:24:31.313Z,5
2017-05-02T03:25:43.858Z,5
2017-05-02T03:26:56.714Z,5
2017-05-02T03:28:09.316Z,5
2017-05-02T03:29:21.864Z,10
2017-05-02T03:30:34.404Z,10
2017-05-02T03:31:46.964Z,10
2017-05-02T03:32:59.183Z,10
2017-05-02T03:34:11.727Z,10
2017-05-02T03:35:24.264Z,10
2017-05-02T03:36:36.790Z,15
2017-05-02T03:37:49.614Z,15
2017-05-02T03:39:02.161Z,15
2017-05-02T03:40:14.427Z,15
2017-05-02T03:41:26.955Z,15
2017-05-02T03:42:39.473Z,15
2017-05-02T03:43:52.017Z,20
2017-05-02T03:45:04.561Z,20
2017-05-02T03:46:17.074Z,20
2017-05-02T03:47:29.582Z,20
2017-05-02T03:48:42.393Z,20
2017-05-02T03:49:54.951Z,20
2017-05-02T03:51:07.508Z,20
2017-05-02T03:52:20.054Z,25
2017-05-02T03:53:32.301Z,25
2017-05-02T03:54:44.824Z,25
2017-05-02T03:55:57.350Z,25
2017-05-02T03:57:09.871Z,25
2017-05-02T03:58:22.096Z,30
2017-05-02T03:59:34.955Z,30
2017-05-02T04:00:47.485Z,35
2017-05-02T04:02:00.025Z,35
2017-05-02T04:03:12.252Z,40
2017-05-02T04:04:24.752Z,40
2017-05-02T04:05:37.296Z,40
2017-05-02T04:06:49.830Z,45
2017-05-02T04:08:02.377Z,45
2017-05-02T04:09:14.615Z,45
2017-05-02T04:10:27.378Z,45
2017-05-02T04:11:39.896Z,45
2017-05-02T04:12:52.438Z,40
2017-05-02T04:14:04.980Z,40
2017-05-02T04:15:17.509Z,40
2017-05-02T04:16:30.055Z,40
2017-05-02T04:17:42.601Z,35
2017-05-02T04:18:55.148Z,35
2017-05-02T04:20:07.713Z,35
2017-05-02T04:21:20.242Z,30
2017-05-02T04:22:32.439Z,35
2017-05-02T04:23:44.997Z,35
2017-05-02T04:24:57.223Z,35
2017-05-02T04:26:09.447Z,40
2017-05-02T04:27:21.669Z,40
2017-05-02T04:28:34.165Z,45
2017-05-02T04:29:46.677Z,50
2017-05-02T04:30:59.209Z,55
2017-05-02T04:32:12.030Z,60
2017-05-02T04:33:24.577Z,70
2017-05-02T04:34:37.119Z,75
2017-05-02T04:35:49.657Z,85
2017-05-02T04:37:02.189Z,85
2017-05-02T04:38:14.437Z,85
2017-05-02T04:39:27.002Z,80
2017-05-02T04:40:39.223Z,75
2017-05-02T04:41:51.735Z,75
2017-05-02T04:43:03.666Z,70
2017-05-02T04:44:16.208Z,70
2017-05-02T04:45:28.734Z,70
2017-05-02T04:46:41.273Z,70
2017-05-02T04:47:53.499Z,70
2017-05-02T04:49:06.027Z,65
2017-05-02T04:50:18.565Z,65
2017-05-02T04:51:31.104Z,60
2017-05-02T04:52:43.654Z,60
2017-05-02T04:53:56.175Z,55
2017-05-02T04:55:08.701Z,55
2017-05-02T04:56:21.216Z,55
2017-05-02T04:57:33.733Z,55
2017-05-02T04:58:46.514Z,55
2017-05-02T04:59:58.753Z,55
2017-05-02T05:01:11.279Z,60
2017-05-02T05:02:23.503Z,60
2017-05-02T05:03:36.042Z,60
2017-05-02T05:04:48.888Z,65
2017-05-02T05:06:01.429Z,65
2017-05-02T05:07:13.937Z,60
2017-05-02T05:08:26.454Z,60
2017-05-02T05:09:38.954Z,60
2017-05-02T05:10:51.505Z,65
2017-05-02T05:12:04.046Z,70
2017-05-02T05:13:16.608Z,75
2017-05-02T05:14:29.137Z,80
2017-05-02T05:15:41.659Z,85
2017-05-02T05:16:54.205Z,95
2017-05-02T05:18:06.749Z,100
2017-05-02T05:19:19.019Z,110
2017-05-02T05:20:31.531Z,125
2017-05-02T05:21:44.075Z,135
2017-05-02T05:22:56.580Z,145
2017-05-02T05:24:09.104Z,150
2017-05-02T05:25:20.746Z,155
2017-05-02T05:26:33.597Z,160
2017-05-02T05:27:46.144Z,165
2017-05-02T05:28:58.688Z,165
2017-05-02T05:30:10.910Z,170
2017-05-02T05:31:23.129Z,180
2017-05-02T05:32:35.365Z,190
2017-05-02T05:33:47.593Z,200
2017-05-02T05:35:00.122Z,215
2017-05-02T05:36:12.663Z,235
2017-05-02T05:37:24.885Z,250
2017-05-02T05:38:37.458Z,270
2017-05-02T05:39:49.979Z,280
2017-05-02T05:41:02.519Z,290
2017-05-02T05:42:14.743Z,300
2017-05-02T05:43:27.271Z,305
2017-05-02T05:44:39.810Z,310
2017-05-02T05:45:52.345Z,330
2017-05-02T05:47:04.581Z,335
2017-05-02T05:48:16.812Z,340
2017-05-02T05:49:29.358Z,345
2017-05-02T05:50:41.891Z,340
2017-05-02T05:51:54.152Z,340
2017-05-02T05:53:06.686Z,345
2017-05-02T05:54:18.949Z,350
2017-05-02T05:55:31.170Z,350
2017-05-02T05:56:43.716Z,355
2017-05-02T05:57:55.940Z,355
2017-05-02T05:59:08.758Z,360
2017-05-02T06:00:21.303Z,360
2017-05-02T06:01:33.842Z,375
2017-05-02T06:02:46.400Z,390
2017-05-02T06:03:58.642Z,400
2017-05-02T06:05:11.183Z,420
2017-05-02T06:06:23.408Z,450
2017-05-02T06:07:35.933Z,470
2017-05-02T06:08:48.172Z,475
2017-05-02T06:10:00.715Z,480
2017-05-02T06:11:12.966Z,490
2017-05-02T06:12:25.188Z,500
2017-05-02T06:13:37.754Z,505
2017-05-02T06:14:50.284Z,510
2017-05-02T06:16:02.821Z,525
2017-05-02T06:17:15.366Z,530
2017-05-02T06:18:27.910Z,515
2017-05-02T06:19:40.181Z,505
2017-05-02T06:20:52.426Z,480
2017-05-02T06:22:04.936Z,465
2017-05-02T06:23:16.892Z,475
2017-05-02T06:24:29.423Z,490
2017-05-02T06:25:41.947Z,530
2017-05-02T06:26:54.439Z,555
2017-05-02T06:28:06.064Z,570
2017-05-02T06:29:18.330Z,545
2017-05-02T06:30:30.873Z,510
2017-05-02T06:31:43.126Z,500
2017-05-02T06:32:55.647Z,475
2017-05-02T06:34:07.867Z,460
2017-05-02T06:35:20.410Z,470
2017-05-02T06:36:32.956Z,480
2017-05-02T06:37:45.497Z,485
2017-05-02T06:38:57.752Z,495
2017-05-02T06:40:09.671Z,500
2017-05-02T06:41:21.920Z,505
2017-05-02T06:42:34.461Z,520
2017-05-02T06:43:47.010Z,540
2017-05-02T06:44:59.573Z,550
2017-05-02T06:46:11.831Z,555
2017-05-02T06:47:24.344Z,560
2017-05-02T06:48:36.568Z,570
2017-05-02T06:49:49.137Z,585
2017-05-02T06:51:01.656Z,610
2017-05-02T06:52:13.906Z,615
2017-05-02T06:53:26.449Z,610
2017-05-02T06:54:38.973Z,600
2017-05-02T06:55:51.490Z,585
2017-05-02T06:57:04.029Z,565
2017-05-02T06:58:16.557Z,525
2017-05-02T06:59:28.781Z,485
2017-05-02T07:00:41.299Z,480
2017-05-02T07:01:53.829Z,505
2017-05-02T07:03:06.387Z,535
2017-05-02T07:04:18.940Z,575
2017-05-02T07:05:31.503Z,595
2017-05-02T07:06:44.053Z,570
2017-05-02T07:07:56.595Z,540
2017-05-02T07:09:09.121Z,515
2017-05-02T07:10:21.370Z,495
2017-05-02T07:11:33.908Z,490
2017-05-02T07:12:46.438Z,485
2017-05-02T07:13:58.979Z,470
2017-05-02T07:15:11.506Z,460
2017-05-02T07:16:24.024Z,455
2017-05-02T07:17:36.549Z,450
2017-05-02T07:18:49.069Z,445
2017-05-02T07:20:01.303Z,445
2017-05-02T07:21:13.234Z,445
2017-05-02T07:22:25.768Z,450
2017-05-02T07:23:37.998Z,460
2017-05-02T07:24:49.920Z,480
2017-05-02T07:26:02.188Z,515
2017-05-02T07:27:14.434Z,545
2017-05-02T07:28:26.981Z,575
2017-05-02T07:29:39.493Z,600
2017-05-02T07:30:52.054Z,570
2017-05-02T07:32:04.585Z,515
2017-05-02T07:33:17.090Z,460
2017-05-02T07:34:29.606Z,440
2017-05-02T07:35:42.138Z,430
2017-05-02T07:36:54.681Z,430
2017-05-02T07:38:07.246Z,420
2017-05-02T07:39:19.196Z,410
2017-05-02T07:40:31.131Z,405
2017-05-02T07:41:43.691Z,415
2017-05-02T07:42:56.224Z,430
2017-05-02T07:44:08.757Z,445
2017-05-02T07:45:20.998Z,455
2017-05-02T07:46:33.200Z,465
2017-05-02T07:47:45.732Z,465
2017-05-02T07:48:58.293Z,465
2017-05-02T07:50:10.511Z,460
2017-05-02T07:51:22.461Z,455
2017-05-02T07:52:34.726Z,470
2017-05-02T07:53:47.248Z,485
2017-05-02T07:54:59.811Z,490
2017-05-02T07:56:12.061Z,490
2017-05-02T07:57:24.578Z,485
2017-05-02T07:58:37.120Z,500
2017-05-02T07:59:49.666Z,530
2017-05-02T08:01:02.190Z,515
2017-05-02T08:02:14.735Z,475
2017-05-02T08:03:26.990Z,485
2017-05-02T08:04:39.557Z,475
2017-05-02T08:05:52.058Z,460
2017-05-02T08:07:04.602Z,455
2017-05-02T08:08:17.151Z,465
2017-05-02T08:09:29.670Z,455
2017-05-02T08:10:42.216Z,470
2017-05-02T08:11:54.757Z,530
2017-05-02T08:13:07.283Z,485
2017-05-02T08:14:19.528Z,540
2017-05-02T08:15:31.822Z,550
2017-05-02T08:16:44.041Z,525
2017-05-02T08:17:56.578Z,505
2017-05-02T08:19:08.525Z,475
2017-05-02T08:20:21.357Z,490
2017-05-02T08:21:33.875Z,470
2017-05-02T08:22:46.416Z,430
2017-05-02T08:23:58.646Z,430
2017-05-02T08:25:11.162Z,405
2017-05-02T08:26:23.400Z,385
2017-05-02T08:27:35.633Z,380
2017-05-02T08:28:47.578Z,345
2017-05-02T08:30:00.124Z,360
2017-05-02T08:31:12.683Z,340
2017-05-02T08:32:24.934Z,355
2017-05-02T08:33:37.160Z,375
2017-05-02T08:34:49.697Z,385
2017-05-02T08:36:02.247Z,395
2017-05-02T08:37:14.203Z,420
2017-05-02T08:38:26.747Z,420
2017-05-02T08:39:38.985Z,385
2017-05-02T08:40:51.525Z,345
2017-05-02T08:42:03.773Z,370
2017-05-02T08:43:16.003Z,385
2017-05-02T08:44:28.219Z,385
2017-05-02T08:45:40.424Z,365
2017-05-02T08:46:52.964Z,330
2017-05-02T08:48:05.502Z,380
2017-05-02T08:49:17.459Z,375
2017-05-02T08:50:29.969Z,365
2017-05-02T08:51:42.520Z,360
2017-05-02T08:52:54.747Z,365
2017-05-02T08:54:07.290Z,385
2017-05-02T08:55:19.528Z,420
2017-05-02T08:56:32.050Z,370
2017-05-02T08:57:44.295Z,350
2017-05-02T08:58:56.827Z,370
2017-05-02T09:00:09.047Z,405
2017-05-02T09:01:21.007Z,410
2017-05-02T09:02:32.631Z,395
2017-05-02T09:03:45.175Z,365
2017-05-02T09:04:57.420Z,365
2017-05-02T09:06:09.675Z,365
2017-05-02T09:07:22.219Z,360
2017-05-02T09:08:34.462Z,405
2017-05-02T09:09:46.988Z,380
2017-05-02T09:10:59.524Z,315
2017-05-02T09:12:11.746Z,360
2017-05-02T09:13:24.304Z,355
2017-05-02T09:14:36.249Z,350
2017-05-02T09:15:48.793Z,355
2017-05-02T09:17:01.313Z,330
2017-05-02T09:18:13.850Z,310
2017-05-02T09:19:26.107Z,320
2017-05-02T09:20:38.628Z,350
2017-05-02T09:21:51.167Z,375
2017-05-02T09:23:03.716Z,445
2017-05-02T09:24:15.940Z,430
2017-05-02T09:25:28.482Z,405
2017-05-02T09:26:40.706Z,410
2017-05-02T09:27:53.249Z,425
2017-05-02T09:29:05.499Z,425
2017-05-02T09:30:17.770Z,410
2017-05-02T09:31:30.330Z,380
2017-05-02T09:32:42.287Z,405
2017-05-02T09:33:54.830Z,380
2017-05-02T09:35:07.328Z,440
2017-05-02T09:36:19.851Z,380
2017-05-02T09:37:32.093Z,390
2017-05-02T09:38:44.331Z,360
2017-05-02T09:39:56.558Z,415
2017-05-02T09:41:08.500Z,430
2017-05-02T09:42:20.743Z,410
2017-05-02T09:43:32.991Z,415
2017-05-02T09:44:45.247Z,465
2017-05-02T09:45:57.782Z,525
2017-05-02T09:47:10.012Z,570
2017-05-02T09:48:22.257Z,580
2017-05-02T09:49:34.773Z,560
2017-05-02T09:50:47.017Z,480
2017-05-02T09:51:59.260Z,460
2017-05-02T09:53:11.794Z,410
2017-05-02T09:54:23.738Z,365
2017-05-02T09:55:35.998Z,375
2017-05-02T09:56:48.519Z,340
2017-05-02T09:58:01.302Z,285
2017-05-02T09:59:13.818Z,285
2017-05-02T10:00:26.385Z,330
2017-05-02T10:01:38.916Z,335
2017-05-02T10:02:51.182Z,325
2017-05-02T10:04:03.722Z,305
2017-05-02T10:05:15.378Z,295
2017-05-02T10:06:27.936Z,310
2017-05-02T10:07:40.487Z,290
2017-05-02T10:08:52.716Z,300
2017-05-02T10:10:05.257Z,295
2017-05-02T10:11:17.201Z,290
2017-05-02T10:12:29.429Z,235
2017-05-02T10:13:41.920Z,250
2017-05-02T10:14:54.441Z,265
2017-05-02T10:16:06.688Z,270
2017-05-02T10:17:18.905Z,280
2017-05-02T10:18:30.832Z,340
2017-05-02T10:19:43.075Z,425
2017-05-02T10:20:55.598Z,405
2017-05-02T10:22:07.859Z,405
2017-05-02T10:23:20.118Z,455
2017-05-02T10:24:32.652Z,465
2017-05-02T10:25:45.180Z,460
2017-05-02T10:26:57.700Z,470
2017-05-02T10:28:09.642Z,495
2017-05-02T10:29:21.894Z,470
2017-05-02T10:30:34.416Z,510
2017-05-02T10:31:46.951Z,580
2017-05-02T10:32:58.905Z,510
2017-05-02T10:34:11.430Z,450
2017-05-02T10:35:23.972Z,455
2017-05-02T10:36:36.471Z,520
2017-05-02T10:37:48.718Z,500
2017-05-02T10:39:01.238Z,390
2017-05-02T10:40:13.780Z,390
2017-05-02T10:41:25.710Z,425
2017-05-02T10:42:37.648Z,465
2017-05-02T10:43:50.161Z,440
2017-05-02T10:45:02.735Z,420
2017-05-02T10:46:14.685Z,470
2017-05-02T10:47:26.928Z,475
2017-05-02T10:48:39.477Z,465
2017-05-02T10:49:52.015Z,415
2017-05-02T10:51:04.247Z,345
2017-05-02T10:52:15.882Z,350
2017-05-02T10:53:28.117Z,385
2017-05-02T10:54:40.078Z,370
2017-05-02T10:55:52.331Z,360
2017-05-02T10:57:04.574Z,345
2017-05-02T10:58:17.101Z,400
2017-05-02T10:59:29.644Z,505
2017-05-02T11:00:41.886Z,495
2017-05-02T11:01:54.426Z,400
2017-05-02T11:03:06.956Z,340
2017-05-02T11:04:19.151Z,360
2017-05-02T11:05:31.345Z,380
2017-05-02T11:06:43.892Z,360
2017-05-02T11:07:56.441Z,325
2017-05-02T11:09:08.700Z,280
2017-05-02T11:10:21.250Z,275
2017-05-02T11:11:33.849Z,310
2017-05-02T11:12:46.393Z,355
2017-05-02T11:13:58.943Z,310
2017-05-02T11:15:10.583Z,215
2017-05-02T11:16:22.809Z,185
2017-05-02T11:17:35.051Z,195
2017-05-02T11:18:47.596Z,205
2017-05-02T11:19:59.875Z,205
2017-05-02T11:21:12.391Z,195
2017-05-02T11:22:24.633Z,200
2017-05-02T11:23:37.159Z,200
2017-05-02T11:24:49.680Z,170
2017-05-02T11:26:02.204Z,160
2017-05-02T11:27:14.413Z,180
2017-05-02T11:28:26.945Z,195
2017-05-02T11:29:39.182Z,225
2017-05-02T11:30:51.726Z,240
2017-05-02T11:32:04.250Z,250
2017-05-02T11:33:16.497Z,260
2017-05-02T11:34:29.023Z,265
2017-05-02T11:35:41.547Z,265
2017-05-02T11:36:54.065Z,250
2017-05-02T11:38:06.310Z,240
2017-05-02T11:39:18.828Z,260
2017-05-02T11:40:31.372Z,275
2017-05-02T11:41:43.901Z,295
2017-05-02T11:42:56.420Z,280
2017-05-02T11:44:08.969Z,245
2017-05-02T11:45:21.218Z,245
2017-05-02T11:46:33.757Z,255
2017-05-02T11:47:46.278Z,260
2017-05-02T11:48:58.501Z,300
2017-05-02T11:50:11.022Z,290
2017-05-02T11:51:23.260Z,310
2017-05-02T11:52:35.465Z,320
2017-05-02T11:53:48.037Z,320
2017-05-02T11:55:00.609Z,310
2017-05-02T11:56:13.177Z,315
2017-05-02T11:57:25.697Z,325
2017-05-02T11:58:38.267Z,350
2017-05-02T11:59:50.795Z,345
2017-05-02T12:01:03.340Z,315
2017-05-02T12:02:14.670Z,315
2017-05-02T12:03:27.204Z,365
2017-05-02T12:04:39.726Z,360
2017-05-02T12:05:52.245Z,390
2017-05-02T12:07:04.488Z,400
2017-05-02T12:08:16.709Z,400
2017-05-02T12:09:29.257Z,380
2017-05-02T12:10:41.820Z,355
2017-05-02T12:11:54.064Z,340
2017-05-02T12:13:06.618Z,365
2017-05-02T12:14:19.162Z,405
2017-05-02T12:15:31.111Z,400
2017-05-02T12:16:43.359Z,355
2017-05-02T12:17:55.894Z,295
2017-05-02T12:19:08.142Z,290
2017-05-02T12:20:20.084Z,325
2017-05-02T12:21:32.632Z,325
2017-05-02T12:22:44.860Z,350
2017-05-02T12:23:57.071Z,360
2017-05-02T12:25:09.001Z,325
2017-05-02T12:26:21.224Z,305
2017-05-02T12:27:33.469Z,305
2017-05-02T12:28:45.713Z,305
2017-05-02T12:29:57.918Z,295
2017-05-02T12:31:10.189Z,320
2017-05-02T12:32:22.405Z,365
2017-05-02T12:33:34.941Z,355
2017-05-02T12:34:47.468Z,360
2017-05-02T12:35:59.990Z,390
2017-05-02T12:37:11.913Z,395
2017-05-02T12:38:24.487Z,400
2017-05-02T12:39:37.044Z,400
2017-05-02T12:40:49.572Z,505
2017-05-02T12:42:01.213Z,665
2017-05-02T12:43:13.445Z,650
2017-05-02T12:44:26.013Z,420
2017-05-02T12:45:38.548Z,315
2017-05-02T12:46:51.102Z,280
2017-05-02T12:48:03.627Z,235
2017-05-02T12:49:16.187Z,225
2017-05-02T12:50:28.436Z,220
2017-05-02T12:51:40.986Z,210
2017-05-02T12:52:53.510Z,215
2017-05-02T12:54:06.037Z,210
2017-05-02T12:57:17.366Z,190
2017-05-02T12:58:29.913Z,200
2017-05-02T12:59:42.464Z,205
2017-05-02T13:00:55.030Z,215
2017-05-02T13:02:07.553Z,230
2017-05-02T13:03:19.804Z,245
2017-05-02T13:04:32.338Z,280
2017-05-02T13:05:44.562Z,295
2017-05-02T13:06:56.802Z,305
2017-05-02T13:08:09.355Z,295
2017-05-02T13:09:21.879Z,295
2017-05-02T13:10:34.139Z,280
2017-05-02T13:11:46.689Z,335
2017-05-02T13:12:59.217Z,345
2017-05-02T13:14:11.738Z,300
2017-05-02T13:15:24.255Z,310
2017-05-02T13:16:36.809Z,340
2017-05-02T13:17:49.349Z,330
2017-05-02T13:19:01.848Z,330
2017-05-02T13:20:13.510Z,325
2017-05-02T13:21:26.061Z,340
2017-05-02T13:22:38.257Z,380
2017-05-02T13:23:50.832Z,400
2017-05-02T13:25:03.067Z,445
2017-05-02T13:26:14.994Z,470
2017-05-02T13:27:27.498Z,460
2017-05-02T13:28:39.735Z,460
2017-05-02T13:29:51.973Z,425
2017-05-02T13:31:04.504Z,435
2017-05-02T13:32:17.023Z,455
2017-05-02T13:33:29.578Z,410
2017-05-02T13:34:41.814Z,415
2017-05-02T13:35:54.336Z,430
2017-05-02T13:37:06.885Z,430
2017-05-02T13:38:19.131Z,500
2017-05-02T13:39:31.349Z,475
2017-05-02T13:40:44.176Z,420
2017-05-02T13:41:56.436Z,380
2017-05-02T13:43:08.686Z,325
2017-05-02T13:44:21.204Z,310
2017-05-02T13:45:33.749Z,305
2017-05-02T13:46:46.278Z,320
2017-05-02T13:47:58.197Z,295
2017-05-02T13:49:10.443Z,260
2017-05-02T13:50:22.663Z,235
2017-05-02T13:51:34.887Z,245
2017-05-02T13:52:47.449Z,235
2017-05-02T13:53:59.670Z,240
2017-05-02T13:55:11.570Z,215
2017-05-02T13:56:24.125Z,220
2017-05-02T13:57:36.062Z,200
2017-05-02T13:58:48.304Z,220
2017-05-02T14:00:00.533Z,200
2017-05-02T14:01:12.496Z,195
2017-05-02T14:02:25.022Z,180
2017-05-02T14:03:37.520Z,190
2017-05-02T14:04:50.041Z,205
2017-05-02T14:06:02.593Z,215
2017-05-02T14:07:14.821Z,215
2017-05-02T14:08:27.077Z,215
2017-05-02T14:09:39.621Z,230
2017-05-02T14:10:52.145Z,235
2017-05-02T14:12:04.365Z,245
2017-05-02T14:13:16.605Z,245
2017-05-02T14:14:28.859Z,235
2017-05-02T14:15:40.777Z,245
2017-05-02T14:16:53.299Z,255
2017-05-02T14:18:05.496Z,225
2017-05-02T14:19:18.017Z,195
2017-05-02T14:20:30.509Z,190
2017-05-02T14:21:43.033Z,205
2017-05-02T14:22:55.252Z,210
2017-05-02T14:24:08.119Z,225
2017-05-02T14:25:20.396Z,240
2017-05-02T14:26:32.922Z,250
2017-05-02T14:27:45.180Z,250
2017-05-02T14:28:57.734Z,260
2017-05-02T14:30:09.661Z,250
2017-05-02T14:31:22.193Z,260
2017-05-02T14:32:34.425Z,255
2017-05-02T14:33:46.942Z,250
2017-05-02T14:34:59.461Z,230
2017-05-02T14:36:11.984Z,195
2017-05-02T14:37:23.919Z,240
2017-05-02T14:38:36.448Z,275
2017-05-02T14:39:48.674Z,245
2017-05-02T14:41:00.607Z,195
2017-05-02T14:42:12.229Z,230
2017-05-02T14:43:24.792Z,230
2017-05-02T14:44:37.328Z,225
2017-05-02T14:45:49.575Z,225
2017-05-02T14:47:01.798Z,225
2017-05-02T14:48:14.057Z,245
2017-05-02T14:49:26.267Z,255
2017-05-02T14:50:38.828Z,270
2017-05-02T14:51:51.329Z,285
2017-05-02T14:53:03.549Z,285
2017-05-02T14:54:16.090Z,250
2017-05-02T14:55:28.648Z,245
2017-05-02T14:56:41.191Z,230
2017-05-02T14:57:53.740Z,220
2017-05-02T14:59:06.282Z,270
2017-05-02T15:00:18.531Z,345
2017-05-02T15:01:31.091Z,345
2017-05-02T15:02:43.637Z,445
2017-05-02T15:03:56.168Z,425
2017-05-02T15:05:08.686Z,485
2017-05-02T15:06:20.629Z,570
2017-05-02T15:07:33.179Z,600
2017-05-02T15:08:45.700Z,680
2017-05-02T15:09:58.234Z,685
2017-05-02T15:11:10.137Z,855
2017-05-02T15:12:22.354Z,855
2017-05-02T15:13:34.908Z,980
2017-05-02T15:14:47.168Z,875
2017-05-02T15:15:59.375Z,775
2017-05-02T15:17:11.921Z,675
2017-05-02T15:18:24.716Z,730
2017-05-02T15:19:36.977Z,650
2017-05-02T15:20:49.525Z,595
2017-05-02T15:22:02.056Z,605
2017-05-02T15:23:14.623Z,660
2017-05-02T15:24:26.843Z,670
2017-05-02T15:25:39.367Z,585
2017-05-02T15:26:51.613Z,675
2017-05-02T15:28:03.835Z,640
2017-05-02T15:29:16.397Z,755
2017-05-02T15:30:28.922Z,650
2017-05-02T15:31:41.473Z,645
2017-05-02T15:32:53.695Z,615
2017-05-02T15:34:06.288Z,640
2017-05-02T15:35:18.548Z,635
2017-05-02T15:36:31.073Z,625
2017-05-02T15:37:43.348Z,635
2017-05-02T15:38:55.598Z,615
2017-05-02T15:40:07.860Z,560
2017-05-02T15:41:20.086Z,570
2017-05-02T15:42:32.585Z,530
2017-05-02T15:43:44.799Z,555
2017-05-02T15:44:57.348Z,505
2017-05-02T15:46:09.887Z,475
2017-05-02T15:47:22.440Z,425
2017-05-02T15:48:34.961Z,445
2017-05-02T15:49:47.481Z,470
2017-05-02T15:51:00.003Z,430
2017-05-02T15:52:11.945Z,455
2017-05-02T15:53:24.502Z,410
2017-05-02T15:54:36.468Z,400
2017-05-02T15:55:49.003Z,355
2017-05-02T15:57:00.933Z,385
2017-05-02T15:58:13.473Z,365
2017-05-02T15:59:25.379Z,300
2017-05-02T16:00:37.924Z,320
2017-05-02T16:01:50.444Z,370
2017-05-02T16:03:02.980Z,375
2017-05-02T16:04:15.507Z,380
2017-05-02T16:05:27.732Z,400
2017-05-02T16:06:40.278Z,420
2017-05-02T16:07:52.818Z,310
2017-05-02T16:09:05.362Z,275
2017-05-02T16:10:17.892Z,265
2017-05-02T16:11:30.141Z,260
2017-05-02T16:12:42.372Z,240
2017-05-02T16:13:54.907Z,270
2017-05-02T16:15:07.396Z,295
2017-05-02T16:16:19.595Z,275
2017-05-02T16:17:32.438Z,280
2017-05-02T16:18:44.987Z,285
2017-05-02T16:19:57.206Z,210
2017-05-02T16:21:09.771Z,255
2017-05-02T16:22:22.301Z,245
2017-05-02T16:23:34.865Z,245
2017-05-02T16:24:47.393Z,205
2017-05-02T16:25:59.612Z,210
2017-05-02T16:27:12.148Z,155
2017-05-02T16:28:24.644Z,155
2017-05-02T16:29:36.572Z,175
2017-05-02T16:30:48.795Z,190
2017-05-02T16:32:01.014Z,180
2017-05-02T16:33:13.252Z,210
2017-05-02T16:34:25.186Z,220
2017-05-02T16:35:37.726Z,235
2017-05-02T16:36:50.275Z,205
2017-05-02T16:38:02.814Z,200
2017-05-02T16:39:15.595Z,195
2017-05-02T16:40:27.833Z,190
2017-05-02T16:41:40.387Z,170
2017-05-02T16:42:52.603Z,215
2017-05-02T16:44:04.853Z,200
2017-05-02T16:45:16.812Z,215
2017-05-02T16:46:29.341Z,180
2017-05-02T16:47:41.563Z,175
2017-05-02T16:48:53.839Z,175
2017-05-02T16:50:06.380Z,200
2017-05-02T16:51:18.599Z,180
2017-05-02T16:52:31.119Z,235
2017-05-02T16:53:43.358Z,185
2017-05-02T16:54:55.572Z,200
2017-05-02T16:56:08.108Z,185
2017-05-02T16:57:20.655Z,160